CheckWX is a tool to help pilots better visualize weather data.  It is not intended as a substitute for an official pre-flight weather briefing.

18:36:21 UTC

KGAG METAR
Gage Airport
Gage, Oklahoma, USA
Current

43 mins ago

KGAG 221753Z AUTO 11006KT 4SM BR OVC006 06/04 A2999 RMK AO2 CIG 005V009 SLP161 T00560039 10056 20017 58012
Observed
Feb-22 @ 17:53 UTC
Wind
  • 110° at 6 KTS
Visibility
4 SM
Flight Rules
IFR
Conditions
Mist
Cloud Levels
  • Overcast at 600' AGL
Temperature
C / 43°F
Dewpoint
C / 39°F
Humidity
87%
Altimeter
29.99" Hg
Pressure
1016.1 hPa
Previous

2 hours ago

KGAG 221705Z AUTO 13012KT 3SM BR OVC006 05/03 A3000 RMK AO2 CIG 004V009 T00500033
Observed
Feb-22 @ 17:05 UTC
Wind
  • 130° at 12 KTS
Visibility
3 SM
Flight Rules
IFR
Conditions
Mist
Cloud Levels
  • Overcast at 600' AGL
Temperature
C / 41°F
Dewpoint
C / 37°F
Humidity
87%
Altimeter
30" Hg
Pressure
1015.92 hPa
Previous

2 hours ago

KGAG 221618Z AUTO 12012KT 1SM BR OVC005 04/03 A3002 RMK AO2 T00390028
Observed
Feb-22 @ 16:18 UTC
Wind
  • 120° at 12 KTS
Visibility
1 SM
Flight Rules
IFR
Conditions
Mist
Cloud Levels
  • Overcast at 500' AGL
Temperature
C / 39°F
Dewpoint
C / 37°F
Humidity
93%
Altimeter
30.02" Hg
Pressure
1016.62 hPa